Time;durP1;ratioP1;P1;durP2;ratioP2;P2;SDS_P1;SDS_P2;PMS_P1;PMS_P2;Temp;Humidity;BMP_temperature;BMP_pressure;BME280_temperature;BME280_humidity;BME280_pressure;Samples;Min_cycle;Max_cycle;Signal;HPM_P1;HPM_P2
2024/03/31 00:01:10;;;;;;;;;;;17.80;65.00;;;;;;5001768;28;1495;-71
2024/03/31 00:03:35;;;;;;;;;;;17.80;65.00;;;;;;5018605;28;1544;-71
2024/03/31 00:06:01;;;;;;;;;;;17.80;65.00;;;;;;5000531;28;1646;-71
2024/03/31 00:08:27;;;;;;;;;;;17.80;65.00;;;;;;5001274;28;1553;-70
2024/03/31 00:11:03;;;;;;;;;;;17.80;65.00;;;;;;5000261;28;1509;-71
2024/03/31 00:13:28;;;;;;;;;;;17.70;65.00;;;;;;5031944;28;1962;-71
2024/03/31 00:15:54;;;;;;;;;;;17.70;65.00;;;;;;5033180;28;1607;-70
2024/03/31 00:18:19;;;;;;;;;;;17.70;65.00;;;;;;5030201;28;1522;-71
2024/03/31 00:20:45;;;;;;;;;;;17.70;65.00;;;;;;5019968;28;1332;-70
2024/03/31 00:23:10;;;;;;;;;;;17.70;65.00;;;;;;4992247;28;1330;-71
2024/03/31 00:25:36;;;;;;;;;;;17.70;65.00;;;;;;5018899;28;1323;-70
2024/03/31 00:28:01;;;;;;;;;;;17.70;65.00;;;;;;5003531;28;1509;-71
2024/03/31 00:30:27;;;;;;;;;;;17.70;65.00;;;;;;5009539;28;1366;-70
2024/03/31 00:32:52;;;;;;;;;;;17.70;65.00;;;;;;5007127;28;1300;-71
2024/03/31 00:35:17;;;;;;;;;;;17.70;65.00;;;;;;5001578;28;1971;-71
2024/03/31 00:37:43;;;;;;;;;;;17.70;65.00;;;;;;5001685;28;1327;-71
2024/03/31 00:40:09;;;;;;;;;;;17.70;65.00;;;;;;5002091;28;1295;-71
2024/03/31 00:42:34;;;;;;;;;;;17.70;65.00;;;;;;5000576;28;1272;-70
2024/03/31 00:44:59;;;;;;;;;;;17.70;65.00;;;;;;5001559;28;1432;-70
2024/03/31 00:47:25;;;;;;;;;;;17.70;65.00;;;;;;4998277;28;1086;-71
2024/03/31 00:49:50;;;;;;;;;;;17.70;65.00;;;;;;5000092;28;1467;-70
2024/03/31 00:52:16;;;;;;;;;;;17.70;65.10;;;;;;4999861;28;1266;-71
2024/03/31 00:54:42;;;;;;;;;;;17.70;65.00;;;;;;4999889;28;1957;-72
2024/03/31 00:57:07;;;;;;;;;;;17.70;65.10;;;;;;4999501;28;1557;-71
2024/03/31 00:59:32;;;;;;;;;;;17.70;65.10;;;;;;4999679;28;1369;-72
2024/03/31 01:01:58;;;;;;;;;;;17.70;65.10;;;;;;4999250;28;1619;-71
2024/03/31 01:04:23;;;;;;;;;;;17.70;65.10;;;;;;5031719;28;1549;-71
2024/03/31 01:06:49;;;;;;;;;;;17.70;65.10;;;;;;5000159;28;1431;-71
2024/03/31 01:09:14;;;;;;;;;;;17.70;65.10;;;;;;5000641;28;1464;-71
2024/03/31 01:11:40;;;;;;;;;;;17.70;65.10;;;;;;5001147;28;1516;-71
2024/03/31 01:14:05;;;;;;;;;;;17.70;65.10;;;;;;5001310;28;1914;-71
2024/03/31 01:16:31;;;;;;;;;;;17.70;65.10;;;;;;5029257;28;1587;-71
2024/03/31 01:18:56;;;;;;;;;;;17.70;65.10;;;;;;5000036;28;1554;-71
2024/03/31 01:21:22;;;;;;;;;;;17.70;65.10;;;;;;5030657;28;1696;-71
2024/03/31 01:23:57;;;;;;;;;;;17.70;65.10;;;;;;5032838;28;1271;-70
2024/03/31 01:26:22;;;;;;;;;;;17.70;65.20;;;;;;5032765;28;1370;-70
2024/03/31 01:28:47;;;;;;;;;;;17.70;65.10;;;;;;5002577;28;1431;-70
2024/03/31 01:31:13;;;;;;;;;;;17.70;65.10;;;;;;5001506;28;1305;-70
2024/03/31 01:33:38;;;;;;;;;;;17.70;65.20;;;;;;5029130;28;1938;-72
2024/03/31 01:36:04;;;;;;;;;;;17.70;65.20;;;;;;5001238;28;1722;-71
2024/03/31 01:38:29;;;;;;;;;;;17.70;65.20;;;;;;5027398;28;1559;-70
2024/03/31 01:40:55;;;;;;;;;;;17.70;65.20;;;;;;5031221;28;1721;-70
2024/03/31 01:43:20;;;;;;;;;;;17.70;65.20;;;;;;5001812;28;1589;-70
2024/03/31 01:45:46;;;;;;;;;;;17.70;65.20;;;;;;4999785;28;1462;-71
2024/03/31 01:48:11;;;;;;;;;;;17.70;65.20;;;;;;5030941;28;1469;-70
2024/03/31 01:50:37;;;;;;;;;;;17.70;65.20;;;;;;4997965;28;1545;-71
2024/03/31 01:53:02;;;;;;;;;;;17.70;65.20;;;;;;4990372;28;1189;-71
2024/03/31 01:55:28;;;;;;;;;;;17.70;65.20;;;;;;5015647;28;1895;-72
2024/03/31 01:57:53;;;;;;;;;;;17.70;65.20;;;;;;5031085;28;1345;-74
2024/03/31 02:00:20;;;;;;;;;;;17.70;65.20;;;;;;5030885;28;1582;-74
2024/03/31 02:02:46;;;;;;;;;;;17.70;65.30;;;;;;5000050;28;1256;-74
2024/03/31 02:05:11;;;;;;;;;;;17.70;65.20;;;;;;4998859;28;1601;-72
2024/03/31 02:07:37;;;;;;;;;;;17.70;66.00;;;;;;5002285;28;1367;-70
2024/03/31 02:10:02;;;;;;;;;;;17.70;65.20;;;;;;4998280;28;1667;-71
2024/03/31 02:12:28;;;;;;;;;;;17.70;65.20;;;;;;4999789;28;1270;-71
2024/03/31 02:14:53;;;;;;;;;;;17.70;65.20;;;;;;5005455;28;1968;-70
2024/03/31 02:17:19;;;;;;;;;;;17.70;65.20;;;;;;5028035;28;1382;-70
2024/03/31 02:19:44;;;;;;;;;;;17.70;65.30;;;;;;4997831;28;1650;-70
2024/03/31 02:22:10;;;;;;;;;;;17.70;65.20;;;;;;5000538;28;1376;-70
2024/03/31 02:24:35;;;;;;;;;;;17.70;65.20;;;;;;5033095;28;1554;-70
2024/03/31 02:27:01;;;;;;;;;;;17.70;65.30;;;;;;4996986;28;1355;-72
2024/03/31 02:29:26;;;;;;;;;;;17.70;65.30;;;;;;5030795;28;1469;-73
2024/03/31 02:31:52;;;;;;;;;;;17.70;65.30;;;;;;4996307;28;1309;-72
2024/03/31 02:34:18;;;;;;;;;;;17.70;65.30;;;;;;4997132;28;1935;-73
2024/03/31 02:36:48;;;;;;;;;;;17.70;65.30;;;;;;5002098;28;1523;-69
2024/03/31 02:39:14;;;;;;;;;;;17.70;66.00;;;;;;4998001;28;1456;-69
2024/03/31 02:41:39;;;;;;;;;;;17.70;65.30;;;;;;4995485;28;1506;-69
2024/03/31 02:44:05;;;;;;;;;;;17.70;65.30;;;;;;4998360;28;1239;-69
2024/03/31 02:46:30;;;;;;;;;;;17.70;65.30;;;;;;4999722;28;1471;-69
2024/03/31 02:48:56;;;;;;;;;;;17.70;65.30;;;;;;5004283;28;1523;-69
2024/03/31 02:51:21;;;;;;;;;;;17.60;65.20;;;;;;5034646;28;1665;-70
2024/03/31 02:53:47;;;;;;;;;;;17.70;66.10;;;;;;5035416;28;1891;-70
2024/03/31 02:56:12;;;;;;;;;;;17.70;65.30;;;;;;5033381;28;1300;-69
2024/03/31 02:58:38;;;;;;;;;;;17.60;65.20;;;;;;5033205;28;1499;-70
2024/03/31 03:01:04;;;;;;;;;;;17.70;65.30;;;;;;5034810;28;1427;-69
2024/03/31 03:03:29;;;;;;;;;;;17.70;65.30;;;;;;5001884;28;1425;-69
2024/03/31 03:05:55;;;;;;;;;;;17.70;65.30;;;;;;5001582;28;1371;-71
2024/03/31 03:08:20;;;;;;;;;;;17.60;65.30;;;;;;5049809;28;1290;-71
2024/03/31 03:10:55;;;;;;;;;;;17.70;65.40;;;;;;5002891;28;1400;-70
2024/03/31 03:13:20;;;;;;;;;;;17.70;65.30;;;;;;5031709;28;1923;-71
2024/03/31 03:15:46;;;;;;;;;;;17.60;65.30;;;;;;5032780;28;1492;-71
2024/03/31 03:18:13;;;;;;;;;;;17.60;65.30;;;;;;5033516;28;1058;-71
2024/03/31 03:20:38;;;;;;;;;;;17.60;65.30;;;;;;5033758;28;1456;-72
2024/03/31 03:23:04;;;;;;;;;;;17.60;65.30;;;;;;5001171;28;1179;-73
2024/03/31 03:25:29;;;;;;;;;;;17.60;65.40;;;;;;5021193;28;1357;-73
2024/03/31 03:27:55;;;;;;;;;;;17.60;65.30;;;;;;5003582;28;1117;-70
2024/03/31 03:30:20;;;;;;;;;;;17.60;65.30;;;;;;5009324;28;1298;-71
2024/03/31 03:32:46;;;;;;;;;;;17.70;65.40;;;;;;5038153;28;1209;-72
2024/03/31 03:35:11;;;;;;;;;;;17.60;65.30;;;;;;5001750;28;1919;-70
2024/03/31 03:37:36;;;;;;;;;;;17.60;65.30;;;;;;5000019;28;1469;-72
2024/03/31 03:40:02;;;;;;;;;;;17.60;65.30;;;;;;5002296;28;1722;-72
2024/03/31 03:42:27;;;;;;;;;;;17.60;65.30;;;;;;5033493;28;1474;-72
2024/03/31 03:44:53;;;;;;;;;;;17.60;65.30;;;;;;5032496;28;1402;-71
2024/03/31 03:47:18;;;;;;;;;;;17.60;65.30;;;;;;5002250;28;1456;-70
2024/03/31 03:49:44;;;;;;;;;;;17.60;65.30;;;;;;5032411;28;1420;-70
2024/03/31 03:52:09;;;;;;;;;;;17.60;65.30;;;;;;5033329;28;1297;-70
2024/03/31 03:54:35;;;;;;;;;;;17.60;65.30;;;;;;5002410;28;1898;-70
2024/03/31 03:57:00;;;;;;;;;;;17.60;65.40;;;;;;5033158;28;1679;-70
2024/03/31 03:59:26;;;;;;;;;;;17.60;65.40;;;;;;5000037;28;1523;-70
2024/03/31 04:01:51;;;;;;;;;;;17.60;65.40;;;;;;5000226;28;1433;-70
2024/03/31 04:04:16;;;;;;;;;;;17.60;65.40;;;;;;4999935;28;1698;-70
2024/03/31 04:06:43;;;;;;;;;;;17.60;65.40;;;;;;5030609;28;1403;-70
2024/03/31 04:09:09;;;;;;;;;;;17.60;65.40;;;;;;5030987;28;1581;-70
2024/03/31 04:11:34;;;;;;;;;;;17.60;65.30;;;;;;5001221;28;1455;-70
2024/03/31 04:13:59;;;;;;;;;;;17.60;65.30;;;;;;5032175;28;1918;-70
2024/03/31 04:16:25;;;;;;;;;;;17.70;65.30;;;;;;5007432;28;1295;-72
2024/03/31 04:18:51;;;;;;;;;;;17.70;65.20;;;;;;5002184;28;1540;-73
2024/03/31 04:21:16;;;;;;;;;;;17.70;65.10;;;;;;5000546;28;1244;-74
2024/03/31 04:23:42;;;;;;;;;;;17.80;65.10;;;;;;5007318;28;1624;-73
2024/03/31 04:26:07;;;;;;;;;;;17.80;65.00;;;;;;5002361;28;1355;-73
2024/03/31 04:28:33;;;;;;;;;;;17.80;64.90;;;;;;5032424;28;1238;-73
2024/03/31 04:31:02;;;;;;;;;;;17.80;64.70;;;;;;5000849;28;930;-73
2024/03/31 04:33:27;;;;;;;;;;;17.80;64.70;;;;;;5000831;28;1977;-73
2024/03/31 04:35:52;;;;;;;;;;;17.80;64.60;;;;;;5000933;28;1347;-73
2024/03/31 04:38:18;;;;;;;;;;;17.90;64.60;;;;;;5030602;28;1295;-73
2024/03/31 04:40:52;;;;;;;;;;;17.90;64.50;;;;;;4998659;28;1378;-70
2024/03/31 04:43:18;;;;;;;;;;;17.90;64.40;;;;;;5032843;28;1408;-70
2024/03/31 04:45:43;;;;;;;;;;;17.90;64.30;;;;;;4998608;28;1681;-70
2024/03/31 04:48:09;;;;;;;;;;;17.90;64.30;;;;;;4999989;28;1521;-70
2024/03/31 04:50:36;;;;;;;;;;;18.00;64.30;;;;;;4998658;28;1410;-71
2024/03/31 04:53:01;;;;;;;;;;;18.00;64.30;;;;;;5031828;28;1415;-71
2024/03/31 04:55:27;;;;;;;;;;;17.90;64.20;;;;;;4998388;28;1957;-70
2024/03/31 04:57:52;;;;;;;;;;;18.00;64.20;;;;;;4999335;28;1395;-71
2024/03/31 05:00:18;;;;;;;;;;;18.00;64.10;;;;;;5029172;28;1188;-70
2024/03/31 05:02:45;;;;;;;;;;;18.00;64.10;;;;;;5002246;28;1326;-70
2024/03/31 05:05:11;;;;;;;;;;;18.00;64.00;;;;;;4999690;28;1484;-70
2024/03/31 05:07:36;;;;;;;;;;;18.00;64.00;;;;;;5032941;28;1491;-70
2024/03/31 05:10:03;;;;;;;;;;;18.00;63.90;;;;;;5000181;28;1670;-70
2024/03/31 05:12:29;;;;;;;;;;;18.00;63.90;;;;;;4998901;28;1476;-71
2024/03/31 05:14:54;;;;;;;;;;;18.10;63.90;;;;;;4999776;28;1902;-71
2024/03/31 05:17:20;;;;;;;;;;;18.10;63.90;;;;;;5031118;28;1823;-71
2024/03/31 05:19:45;;;;;;;;;;;18.10;63.80;;;;;;4998601;28;1399;-71
2024/03/31 05:22:11;;;;;;;;;;;18.10;64.50;;;;;;4998850;28;1472;-70
2024/03/31 05:24:36;;;;;;;;;;;18.10;63.70;;;;;;4999642;28;1446;-70
2024/03/31 05:27:02;;;;;;;;;;;18.10;63.70;;;;;;5002537;28;1385;-70
2024/03/31 05:29:27;;;;;;;;;;;18.10;63.70;;;;;;5001238;28;1358;-70
2024/03/31 05:31:53;;;;;;;;;;;18.10;63.60;;;;;;4999825;28;1404;-70
2024/03/31 05:34:18;;;;;;;;;;;18.10;63.60;;;;;;4999866;28;1962;-70
2024/03/31 05:36:44;;;;;;;;;;;18.10;63.60;;;;;;4996007;28;1433;-70
2024/03/31 05:39:09;;;;;;;;;;;18.10;63.60;;;;;;5032165;28;1736;-70
2024/03/31 05:41:35;;;;;;;;;;;18.10;63.60;;;;;;4999641;28;1320;-71
2024/03/31 05:44:00;;;;;;;;;;;18.10;63.50;;;;;;4998783;28;1551;-71
2024/03/31 05:46:28;;;;;;;;;;;18.10;63.50;;;;;;4998524;28;1441;-70
2024/03/31 05:48:53;;;;;;;;;;;18.10;63.50;;;;;;4998245;28;1532;-70
2024/03/31 05:51:18;;;;;;;;;;;18.20;63.60;;;;;;5031881;28;1519;-70
2024/03/31 05:53:44;;;;;;;;;;;18.10;63.40;;;;;;5000659;28;1957;-70
2024/03/31 05:56:10;;;;;;;;;;;18.20;63.50;;;;;;4998021;28;1384;-69
2024/03/31 05:58:35;;;;;;;;;;;18.20;63.50;;;;;;4998278;28;1522;-69
2024/03/31 06:01:00;;;;;;;;;;;18.20;63.50;;;;;;4998800;28;1445;-69
2024/03/31 06:03:26;;;;;;;;;;;18.20;63.50;;;;;;5031575;28;1242;-69
2024/03/31 06:05:51;;;;;;;;;;;18.20;63.50;;;;;;5000112;28;1351;-70
2024/03/31 06:08:17;;;;;;;;;;;18.20;63.50;;;;;;4999518;28;1261;-69
2024/03/31 06:10:42;;;;;;;;;;;18.20;63.50;;;;;;4999478;28;2029;-70
2024/03/31 06:13:08;;;;;;;;;;;18.20;63.50;;;;;;5002287;28;998;-70
2024/03/31 06:15:33;;;;;;;;;;;18.20;63.50;;;;;;5036510;28;1915;-70
2024/03/31 06:17:59;;;;;;;;;;;18.20;63.50;;;;;;4998308;28;1087;-70
2024/03/31 06:20:25;;;;;;;;;;;18.20;63.50;;;;;;5007802;28;4206;-70
2024/03/31 06:22:51;;;;;;;;;;;18.20;63.50;;;;;;5001694;28;3863;-72
2024/03/31 06:25:16;;;;;;;;;;;18.20;63.50;;;;;;5004308;28;1371;-71
2024/03/31 06:27:41;;;;;;;;;;;18.20;63.50;;;;;;5003783;28;923;-71
2024/03/31 06:30:07;;;;;;;;;;;18.20;63.50;;;;;;5003707;28;1554;-71
2024/03/31 06:32:33;;;;;;;;;;;18.20;63.50;;;;;;5000516;28;1457;-70
2024/03/31 06:34:58;;;;;;;;;;;18.20;63.50;;;;;;5002559;28;1906;-71
2024/03/31 06:37:24;;;;;;;;;;;18.20;63.60;;;;;;5002978;28;1547;-71
2024/03/31 06:39:49;;;;;;;;;;;18.10;63.50;;;;;;5002575;28;1260;-71
2024/03/31 06:42:16;;;;;;;;;;;18.10;63.50;;;;;;5031776;28;1689;-71
2024/03/31 06:44:41;;;;;;;;;;;18.10;63.50;;;;;;5032132;28;1178;-71
2024/03/31 06:47:07;;;;;;;;;;;18.10;63.50;;;;;;5032518;28;1276;-71
2024/03/31 06:49:32;;;;;;;;;;;18.10;63.60;;;;;;5034393;28;1295;-71
2024/03/31 06:51:58;;;;;;;;;;;18.10;63.60;;;;;;5035107;28;1692;-71
2024/03/31 06:54:24;;;;;;;;;;;18.10;63.60;;;;;;5031474;28;1973;-72
2024/03/31 06:56:50;;;;;;;;;;;18.10;63.60;;;;;;5033829;28;1471;-72
2024/03/31 06:59:15;;;;;;;;;;;18.10;63.60;;;;;;5001004;28;988;-70
2024/03/31 07:01:41;;;;;;;;;;;18.10;63.60;;;;;;5000147;28;1295;-69
2024/03/31 07:04:06;;;;;;;;;;;18.10;63.60;;;;;;5002816;28;2300;-69
2024/03/31 07:06:32;;;;;;;;;;;18.10;63.70;;;;;;4997523;28;1850;-69
2024/03/31 07:08:57;;;;;;;;;;;18.10;63.70;;;;;;5002106;28;1432;-69
2024/03/31 07:11:23;;;;;;;;;;;18.10;63.70;;;;;;5007998;28;1492;-69
2024/03/31 07:13:48;;;;;;;;;;;18.10;63.70;;;;;;5015731;28;1902;-69
2024/03/31 07:16:14;;;;;;;;;;;18.10;63.70;;;;;;5034355;28;1519;-69
2024/03/31 07:18:39;;;;;;;;;;;18.10;63.80;;;;;;5001137;28;1342;-68
2024/03/31 07:21:05;;;;;;;;;;;18.10;63.80;;;;;;5035652;28;1814;-69
2024/03/31 07:23:30;;;;;;;;;;;18.10;63.80;;;;;;5031418;28;1475;-69
2024/03/31 07:25:57;;;;;;;;;;;18.10;63.80;;;;;;5049282;28;1499;-69
2024/03/31 07:28:24;;;;;;;;;;;18.10;63.90;;;;;;5031516;28;1322;-69
2024/03/31 07:30:50;;;;;;;;;;;18.10;63.80;;;;;;5002380;28;1350;-69
2024/03/31 07:33:15;;;;;;;;;;;18.10;63.90;;;;;;5002561;28;1540;-69
2024/03/31 07:35:40;;;;;;;;;;;18.10;63.80;;;;;;5002175;28;1967;-70
2024/03/31 07:38:06;;;;;;;;;;;18.10;63.90;;;;;;4998855;28;1374;-72
2024/03/31 07:40:31;;;;;;;;;;;18.00;63.80;;;;;;5001696;28;1353;-71
2024/03/31 07:42:57;;;;;;;;;;;18.10;63.90;;;;;;5000925;28;1328;-70
2024/03/31 07:45:22;;;;;;;;;;;18.10;63.90;;;;;;5031479;28;1700;-70
2024/03/31 07:47:48;;;;;;;;;;;18.10;63.80;;;;;;5034436;28;1568;-70
2024/03/31 07:50:14;;;;;;;;;;;18.10;63.80;;;;;;5034174;28;1254;-70
2024/03/31 07:52:41;;;;;;;;;;;18.10;63.80;;;;;;5032237;28;1407;-70
2024/03/31 07:55:07;;;;;;;;;;;18.10;63.80;;;;;;5033344;28;1949;-71
2024/03/31 07:57:32;;;;;;;;;;;18.10;63.80;;;;;;5033262;28;1475;-70
2024/03/31 07:59:58;;;;;;;;;;;18.10;64.50;;;;;;5033647;28;991;-70
2024/03/31 08:02:23;;;;;;;;;;;18.10;63.70;;;;;;5033270;28;1232;-70
2024/03/31 08:04:49;;;;;;;;;;;18.10;63.70;;;;;;5003314;28;1344;-70
2024/03/31 08:07:14;;;;;;;;;;;18.10;63.70;;;;;;5002356;28;1470;-70
2024/03/31 08:09:40;;;;;;;;;;;18.20;63.70;;;;;;5035722;28;1472;-70
2024/03/31 08:12:05;;;;;;;;;;;18.10;63.70;;;;;;5001232;28;1375;-70
2024/03/31 08:14:31;;;;;;;;;;;18.10;63.60;;;;;;5001248;28;1969;-70
2024/03/31 08:16:57;;;;;;;;;;;18.10;63.60;;;;;;5016756;28;1527;-70
2024/03/31 08:19:22;;;;;;;;;;;18.10;63.60;;;;;;5031340;28;1556;-70
2024/03/31 08:21:47;;;;;;;;;;;18.10;63.60;;;;;;5035123;28;1771;-70
2024/03/31 08:24:13;;;;;;;;;;;18.20;63.60;;;;;;5000991;28;1391;-69
2024/03/31 08:26:38;;;;;;;;;;;18.20;63.60;;;;;;5029201;28;1292;-69
2024/03/31 08:29:04;;;;;;;;;;;18.20;63.60;;;;;;5001372;28;1393;-70
2024/03/31 08:31:30;;;;;;;;;;;18.20;64.30;;;;;;5000171;28;1323;-69
2024/03/31 08:33:55;;;;;;;;;;;18.20;63.50;;;;;;4998490;28;1969;-69
2024/03/31 08:36:21;;;;;;;;;;;18.20;63.50;;;;;;5000077;28;1739;-69
2024/03/31 08:38:46;;;;;;;;;;;18.20;64.30;;;;;;5030972;28;1490;-69
2024/03/31 08:41:20;;;;;;;;;;;18.20;63.50;;;;;;4998273;28;1505;-71
2024/03/31 08:43:45;;;;;;;;;;;18.20;63.50;;;;;;5030681;28;1400;-70
2024/03/31 08:46:11;;;;;;;;;;;18.20;63.50;;;;;;5031057;28;1739;-71
2024/03/31 08:48:36;;;;;;;;;;;18.20;63.50;;;;;;5031909;28;1440;-73
2024/03/31 08:51:02;;;;;;;;;;;18.20;63.50;;;;;;5000794;28;1590;-73
2024/03/31 08:53:27;;;;;;;;;;;18.20;63.50;;;;;;5030233;28;1907;-72
2024/03/31 08:55:53;;;;;;;;;;;18.20;63.50;;;;;;5017943;28;1304;-71
2024/03/31 08:58:18;;;;;;;;;;;18.20;63.50;;;;;;5031941;28;1311;-72
2024/03/31 09:00:44;;;;;;;;;;;18.20;63.50;;;;;;5029981;28;1240;-72
2024/03/31 09:03:10;;;;;;;;;;;18.20;63.40;;;;;;4999908;28;1559;-71
2024/03/31 09:05:35;;;;;;;;;;;18.20;63.40;;;;;;5018787;28;1407;-71
2024/03/31 09:08:01;;;;;;;;;;;18.20;63.40;;;;;;5002630;28;1323;-70
2024/03/31 09:10:26;;;;;;;;;;;18.20;63.40;;;;;;5032029;28;1348;-69
2024/03/31 09:12:52;;;;;;;;;;;18.20;63.40;;;;;;5031552;28;1456;-71
2024/03/31 09:15:17;;;;;;;;;;;18.20;63.40;;;;;;4997381;28;1997;-71
2024/03/31 09:17:43;;;;;;;;;;;18.20;63.40;;;;;;5015671;28;1255;-70
2024/03/31 09:20:08;;;;;;;;;;;18.20;63.40;;;;;;5028549;28;1367;-70
2024/03/31 09:22:35;;;;;;;;;;;18.20;63.40;;;;;;5048643;28;1712;-70
2024/03/31 09:25:01;;;;;;;;;;;18.20;63.50;;;;;;4999682;28;1361;-71
2024/03/31 09:27:26;;;;;;;;;;;18.20;63.50;;;;;;5031477;28;1339;-71
2024/03/31 09:29:56;;;;;;;;;;;18.20;63.60;;;;;;5032625;28;1469;-71
2024/03/31 09:32:22;;;;;;;;;;;18.20;63.50;;;;;;4999168;28;1540;-69
2024/03/31 09:34:51;;;;;;;;;;;18.20;63.50;;;;;;5032354;28;1973;-69
2024/03/31 09:37:16;;;;;;;;;;;18.20;63.50;;;;;;5000247;28;1661;-69
2024/03/31 09:39:42;;;;;;;;;;;18.20;63.50;;;;;;5034541;28;1471;-69
2024/03/31 09:42:07;;;;;;;;;;;18.20;63.50;;;;;;5030673;28;1874;-68
2024/03/31 09:44:35;;;;;;;;;;;18.20;63.60;;;;;;5030676;28;1481;-69
2024/03/31 09:47:00;;;;;;;;;;;18.20;63.60;;;;;;5032292;28;1620;-68
2024/03/31 09:49:30;;;;;;;;;;;18.20;63.60;;;;;;5028204;28;1332;-68
2024/03/31 09:51:56;;;;;;;;;;;18.20;63.60;;;;;;5029561;28;1632;-68
2024/03/31 09:54:22;;;;;;;;;;;18.20;63.60;;;;;;5033349;28;1907;-68
2024/03/31 09:57:16;;;;;;;;;;;18.20;63.70;;;;;;5032034;28;1982;-69
2024/03/31 09:59:48;;;;;;;;;;;18.10;63.60;;;;;;5000880;28;1474;-68
2024/03/31 10:02:13;;;;;;;;;;;18.10;63.70;;;;;;5002823;28;1469;-69
2024/03/31 10:04:39;;;;;;;;;;;18.10;63.70;;;;;;5034372;28;1645;-69
2024/03/31 10:07:05;;;;;;;;;;;18.10;63.70;;;;;;5002663;28;1458;-70
2024/03/31 10:09:30;;;;;;;;;;;18.10;63.80;;;;;;5004075;28;1348;-69
2024/03/31 10:11:56;;;;;;;;;;;18.10;63.80;;;;;;5003903;28;1549;-69
2024/03/31 10:14:21;;;;;;;;;;;18.10;64.60;;;;;;5035146;28;1968;-70
2024/03/31 10:16:47;;;;;;;;;;;18.10;63.80;;;;;;5035216;28;1599;-70
2024/03/31 10:19:12;;;;;;;;;;;18.10;63.80;;;;;;5003702;28;1513;-71
2024/03/31 10:21:38;;;;;;;;;;;18.10;63.90;;;;;;5032089;28;1373;-71
2024/03/31 10:24:03;;;;;;;;;;;18.10;63.90;;;;;;5035790;28;1046;-69
2024/03/31 10:26:29;;;;;;;;;;;18.10;63.90;;;;;;5002151;28;1367;-72
2024/03/31 10:28:54;;;;;;;;;;;18.10;63.90;;;;;;5034758;28;1222;-70
2024/03/31 10:31:20;;;;;;;;;;;18.10;64.00;;;;;;5037972;28;1438;-71
2024/03/31 10:33:45;;;;;;;;;;;18.10;64.00;;;;;;5002729;28;1968;-70
2024/03/31 10:36:11;;;;;;;;;;;18.10;64.00;;;;;;4994678;28;1304;-72
2024/03/31 10:38:41;;;;;;;;;;;18.10;64.00;;;;;;5033715;28;1268;-72
2024/03/31 10:41:06;;;;;;;;;;;18.10;64.10;;;;;;5031441;28;1025;-71
2024/03/31 10:43:32;;;;;;;;;;;18.10;64.10;;;;;;5034363;28;1336;-71
2024/03/31 10:45:57;;;;;;;;;;;18.10;64.10;;;;;;5035519;28;1307;-72
2024/03/31 10:48:23;;;;;;;;;;;18.10;64.10;;;;;;5037000;28;1578;-71
2024/03/31 10:50:48;;;;;;;;;;;18.00;64.10;;;;;;5005123;28;1770;-71
2024/03/31 10:53:23;;;;;;;;;;;18.10;64.20;;;;;;5032987;28;1422;-71
2024/03/31 10:55:50;;;;;;;;;;;18.10;64.20;;;;;;5031901;28;1890;-71
2024/03/31 10:58:15;;;;;;;;;;;18.00;64.10;;;;;;5033671;28;1306;-70
2024/03/31 11:00:44;;;;;;;;;;;18.10;64.20;;;;;;5002636;28;2312;-70
2024/03/31 11:03:10;;;;;;;;;;;18.10;64.20;;;;;;5031970;28;2579;-70
2024/03/31 11:05:37;;;;;;;;;;;18.00;64.20;;;;;;5001934;28;1471;-70
2024/03/31 11:08:02;;;;;;;;;;;18.00;64.20;;;;;;5006099;28;1659;-70
2024/03/31 11:10:28;;;;;;;;;;;18.10;64.30;;;;;;5032476;28;1588;-70
2024/03/31 11:12:53;;;;;;;;;;;18.00;64.20;;;;;;5033689;28;1616;-70
2024/03/31 11:15:19;;;;;;;;;;;18.00;64.30;;;;;;5034822;28;1910;-70
2024/03/31 11:17:44;;;;;;;;;;;18.00;64.20;;;;;;5032107;28;1263;-70
2024/03/31 11:20:13;;;;;;;;;;;18.00;64.30;;;;;;5032684;28;1810;-70
2024/03/31 11:22:38;;;;;;;;;;;18.00;64.30;;;;;;5022975;28;1350;-70
2024/03/31 11:25:04;;;;;;;;;;;18.00;64.30;;;;;;5009217;28;1388;-70
2024/03/31 11:27:29;;;;;;;;;;;18.00;64.30;;;;;;5003815;28;1300;-70
2024/03/31 11:29:55;;;;;;;;;;;18.00;64.30;;;;;;5036280;28;2282;-70
2024/03/31 11:32:20;;;;;;;;;;;18.00;64.30;;;;;;5034940;28;1463;-70
2024/03/31 11:34:46;;;;;;;;;;;18.00;64.40;;;;;;5003790;28;1907;-70
2024/03/31 11:37:12;;;;;;;;;;;18.00;64.40;;;;;;5003838;28;1312;-70
2024/03/31 11:39:37;;;;;;;;;;;18.00;64.40;;;;;;4998428;28;1861;-70
2024/03/31 11:42:03;;;;;;;;;;;18.00;64.40;;;;;;5018568;28;1993;-69
2024/03/31 11:44:31;;;;;;;;;;;18.00;64.40;;;;;;5035498;28;1532;-70
2024/03/31 11:46:57;;;;;;;;;;;18.00;64.40;;;;;;5032755;28;1247;-70
2024/03/31 11:49:22;;;;;;;;;;;18.00;64.40;;;;;;5016928;28;2256;-70
2024/03/31 11:51:48;;;;;;;;;;;18.00;64.50;;;;;;5001583;28;1378;-70
2024/03/31 11:54:13;;;;;;;;;;;18.00;64.40;;;;;;5034476;28;1894;-70
2024/03/31 11:56:39;;;;;;;;;;;18.00;64.40;;;;;;4998146;28;1259;-70
2024/03/31 11:59:20;;;;;;;;;;;18.00;64.50;;;;;;5033609;28;1592;-70
2024/03/31 12:01:45;;;;;;;;;;;18.00;64.50;;;;;;5034418;28;1276;-70
2024/03/31 12:04:14;;;;;;;;;;;17.90;64.40;;;;;;4991467;28;1548;-70
2024/03/31 12:06:40;;;;;;;;;;;17.90;64.40;;;;;;5002578;28;1296;-69
2024/03/31 12:09:05;;;;;;;;;;;18.00;64.50;;;;;;5034500;28;1369;-71
2024/03/31 12:11:31;;;;;;;;;;;18.00;64.50;;;;;;5034710;28;1377;-71
2024/03/31 12:13:56;;;;;;;;;;;18.00;64.50;;;;;;5034023;28;1963;-71
2024/03/31 12:16:22;;;;;;;;;;;17.90;64.50;;;;;;5034287;28;1440;-71
2024/03/31 12:18:47;;;;;;;;;;;17.90;64.50;;;;;;5034625;28;1384;-71
2024/03/31 12:21:22;;;;;;;;;;;17.90;64.60;;;;;;5003129;28;1573;-71
2024/03/31 12:23:47;;;;;;;;;;;17.90;64.50;;;;;;5032633;28;1373;-70
2024/03/31 12:26:13;;;;;;;;;;;18.00;64.60;;;;;;4998501;28;1277;-70
2024/03/31 12:28:39;;;;;;;;;;;17.90;64.60;;;;;;5034009;28;1227;-71
2024/03/31 12:31:04;;;;;;;;;;;17.90;64.50;;;;;;5035692;28;1255;-71
2024/03/31 12:33:30;;;;;;;;;;;18.00;64.70;;;;;;5000232;28;1518;-70
2024/03/31 12:35:59;;;;;;;;;;;18.00;64.60;;;;;;5033728;28;1918;-70
2024/03/31 12:38:25;;;;;;;;;;;18.00;64.70;;;;;;5028405;28;1194;-70
2024/03/31 12:40:53;;;;;;;;;;;18.00;64.70;;;;;;5002754;28;1437;-70
2024/03/31 12:43:25;;;;;;;;;;;17.90;64.60;;;;;;4995013;28;1200;-71
2024/03/31 12:45:51;;;;;;;;;;;17.90;64.60;;;;;;5033278;28;1484;-71
2024/03/31 12:48:17;;;;;;;;;;;17.90;64.70;;;;;;5004222;28;1245;-71
2024/03/31 12:50:52;;;;;;;;;;;17.90;64.70;;;;;;5019343;28;1248;-71
2024/03/31 12:53:18;;;;;;;;;;;18.00;64.70;;;;;;5033166;28;1212;-71
2024/03/31 12:55:44;;;;;;;;;;;17.90;64.70;;;;;;4999888;28;1914;-71
2024/03/31 12:58:09;;;;;;;;;;;17.90;64.70;;;;;;5002073;28;1274;-71
2024/03/31 13:00:38;;;;;;;;;;;17.90;64.70;;;;;;4998813;28;1318;-71
2024/03/31 13:03:05;;;;;;;;;;;17.90;64.70;;;;;;5034154;28;1239;-71
2024/03/31 13:05:31;;;;;;;;;;;17.90;64.70;;;;;;5031149;28;1287;-71
2024/03/31 13:07:56;;;;;;;;;;;17.90;64.70;;;;;;5031063;28;1460;-71
2024/03/31 13:10:22;;;;;;;;;;;17.90;64.70;;;;;;4999293;28;959;-71
2024/03/31 13:12:47;;;;;;;;;;;17.90;64.80;;;;;;5000802;28;1253;-71
2024/03/31 13:15:13;;;;;;;;;;;17.90;64.80;;;;;;5004625;28;1922;-71
2024/03/31 13:17:39;;;;;;;;;;;17.90;64.80;;;;;;5003547;28;1472;-71
2024/03/31 13:20:05;;;;;;;;;;;17.90;64.80;;;;;;4997800;28;1306;-71
2024/03/31 13:22:31;;;;;;;;;;;17.90;64.80;;;;;;4999392;28;1483;-71
2024/03/31 13:24:56;;;;;;;;;;;17.90;64.80;;;;;;5033113;28;1371;-71
2024/03/31 13:27:22;;;;;;;;;;;17.90;64.80;;;;;;4999385;28;1134;-71
2024/03/31 13:29:47;;;;;;;;;;;17.90;64.80;;;;;;5000648;28;1510;-71
2024/03/31 13:32:13;;;;;;;;;;;17.90;64.80;;;;;;5031821;28;1487;-71
2024/03/31 13:34:38;;;;;;;;;;;17.90;64.80;;;;;;5031772;28;1907;-71
2024/03/31 13:37:04;;;;;;;;;;;17.90;64.80;;;;;;4998891;28;1644;-71
2024/03/31 13:39:29;;;;;;;;;;;17.90;64.80;;;;;;5031587;28;1331;-71
2024/03/31 13:41:55;;;;;;;;;;;17.90;64.80;;;;;;4998933;28;1421;-70
2024/03/31 13:44:21;;;;;;;;;;;17.90;64.80;;;;;;5032719;28;1308;-71
2024/03/31 13:46:46;;;;;;;;;;;17.90;64.80;;;;;;4996446;28;1386;-71
2024/03/31 13:49:12;;;;;;;;;;;17.90;64.90;;;;;;5032201;28;1466;-71
2024/03/31 13:51:37;;;;;;;;;;;17.90;64.90;;;;;;5000303;28;1336;-71
2024/03/31 13:54:03;;;;;;;;;;;17.90;64.90;;;;;;5000095;28;1928;-71
2024/03/31 13:56:28;;;;;;;;;;;17.90;64.90;;;;;;5001292;28;1319;-71
2024/03/31 13:58:54;;;;;;;;;;;17.90;64.90;;;;;;5032132;28;1365;-70
2024/03/31 14:01:19;;;;;;;;;;;17.90;64.90;;;;;;5029200;28;1439;-71
2024/03/31 14:03:44;;;;;;;;;;;17.90;64.90;;;;;;5002782;28;1306;-71
2024/03/31 14:06:10;;;;;;;;;;;17.90;64.90;;;;;;5000154;28;1419;-71
2024/03/31 14:08:35;;;;;;;;;;;17.90;64.90;;;;;;4998978;28;1182;-71
2024/03/31 14:11:01;;;;;;;;;;;17.90;64.90;;;;;;5000118;28;1388;-71
2024/03/31 14:13:27;;;;;;;;;;;17.90;64.90;;;;;;5017968;28;1518;-71
2024/03/31 14:15:52;;;;;;;;;;;17.90;64.90;;;;;;4999131;28;1906;-71
2024/03/31 14:18:18;;;;;;;;;;;17.90;64.90;;;;;;4997666;28;1299;-71
2024/03/31 14:20:43;;;;;;;;;;;17.90;64.90;;;;;;5029473;28;1352;-71
2024/03/31 14:23:09;;;;;;;;;;;17.90;64.90;;;;;;4999838;28;1135;-71